Time;durP1;ratioP1;P1;durP2;ratioP2;P2;SDS_P1;SDS_P2;PMS_P1;PMS_P2;Temp;Humidity;BMP_temperature;BMP_pressure;BME280_temperature;BME280_humidity;BME280_pressure;Samples;Min_cycle;Max_cycle;Signal;HPM_P1;HPM_P2
2021/03/30 00:02:06;;;;;;;;;;;;;;;16.04;40.05;102401.47;5052696;28;19924;-70
2021/03/30 00:08:57;;;;;;;;;;;;;;;15.85;40.31;102409.09;5053825;28;19920;-71
2021/03/30 00:11:26;;;;;;;;;;;;;;;15.97;40.25;102404.63;5053999;28;19924;-70
2021/03/30 00:13:53;;;;;;;;;;;;;;;15.94;40.36;102393.31;5055088;28;19932;-72
2021/03/30 00:16:20;;;;;;;;;;;;;;;15.80;40.53;102404.44;5052700;28;19925;-71
2021/03/30 00:18:46;;;;;;;;;;;;;;;15.99;39.99;102396.00;5053869;28;19925;-72
2021/03/30 00:21:14;;;;;;;;;;;;;;;15.74;40.59;102398.13;5052319;28;19925;-73
2021/03/30 00:23:40;;;;;;;;;;;;;;;15.68;40.74;102399.38;5053808;28;19932;-71
2021/03/30 00:26:07;;;;;;;;;;;;;;;15.64;40.91;102398.34;5052316;28;20384;-71
2021/03/30 00:28:34;;;;;;;;;;;;;;;15.44;41.40;102395.97;5052757;28;20387;-70
2021/03/30 00:31:00;;;;;;;;;;;;;;;15.46;41.44;102395.66;5053624;28;19935;-72
2021/03/30 00:33:27;;;;;;;;;;;;;;;15.44;41.47;102393.19;5051713;28;19925;-71
2021/03/30 00:35:54;;;;;;;;;;;;;;;15.20;42.16;102398.00;5056376;28;19931;-70
2021/03/30 00:38:20;;;;;;;;;;;;;;;15.18;42.38;102403.06;5055245;28;19932;-71
2021/03/30 00:40:48;;;;;;;;;;;;;;;15.44;41.57;102395.97;5055658;28;20016;-71
2021/03/30 00:43:15;;;;;;;;;;;;;;;15.54;41.45;102397.72;5073225;28;19924;-71
2021/03/30 00:45:41;;;;;;;;;;;;;;;15.63;41.15;102393.94;5071584;28;20276;-71
2021/03/30 00:48:20;;;;;;;;;;;;;;;15.55;41.25;102379.94;5073209;28;19925;-71
2021/03/30 00:50:56;;;;;;;;;;;;;;;15.55;41.42;102393.81;5024042;28;19931;-71
2021/03/30 00:53:41;;;;;;;;;;;;;;;15.46;41.63;102382.56;5073091;28;19929;-72
2021/03/30 00:56:30;;;;;;;;;;;;;;;15.05;42.50;102381.59;5056939;28;19928;-72
2021/03/30 00:59:03;;;;;;;;;;;;;;;15.23;41.97;102377.13;5055234;28;19925;-70
2021/03/30 01:01:47;;;;;;;;;;;;;;;15.24;41.94;102378.78;5073368;28;19931;-72
2021/03/30 01:04:14;;;;;;;;;;;;;;;15.11;41.90;102374.84;5073306;28;19925;-69
2021/03/30 01:06:41;;;;;;;;;;;;;;;15.16;41.98;102380.31;5072596;28;19928;-71
2021/03/30 01:09:26;;;;;;;;;;;;;;;15.17;41.87;102379.19;5055323;28;19950;-71
2021/03/30 01:11:59;;;;;;;;;;;;;;;15.22;41.56;102376.31;5056041;28;19944;-69
2021/03/30 01:14:54;;;;;;;;;;;;;;;15.20;41.39;102372.22;5041285;28;19932;-70
2021/03/30 01:17:28;;;;;;;;;;;;;;;15.10;41.68;102373.19;5039651;28;19924;-71
2021/03/30 01:20:09;;;;;;;;;;;;;;;15.05;41.62;102369.66;5036714;28;19925;-72
2021/03/30 01:22:48;;;;;;;;;;;;;;;14.98;41.91;102364.53;5073864;28;19925;-71
2021/03/30 01:25:14;;;;;;;;;;;;;;;15.11;41.67;102358.22;5075748;28;19943;-72
2021/03/30 01:27:45;;;;;;;;;;;;;;;15.09;41.78;102359.63;5042684;28;20303;-71
2021/03/30 01:30:12;;;;;;;;;;;;;;;15.19;41.01;102362.22;5075763;28;19995;-71
2021/03/30 01:32:39;;;;;;;;;;;;;;;15.19;40.80;102349.16;5074532;28;19931;-70
2021/03/30 01:35:10;;;;;;;;;;;;;;;15.30;40.37;102356.19;5055488;28;20371;-72
2021/03/30 01:37:55;;;;;;;;;;;;;;;15.30;40.29;102355.38;5061949;28;20028;-71
2021/03/30 01:40:39;;;;;;;;;;;;;;;15.40;40.09;102353.25;5042951;28;19924;-70
2021/03/30 01:43:06;;;;;;;;;;;;;;;15.05;40.99;102361.34;5042537;28;19924;-73
2021/03/30 01:45:36;;;;;;;;;;;;;;;15.20;40.71;102356.34;5084606;28;19920;-70
2021/03/30 01:48:03;;;;;;;;;;;;;;;14.99;41.23;102354.25;5066519;28;19931;-71
2021/03/30 01:50:30;;;;;;;;;;;;;;;14.91;41.35;102343.81;5059405;28;19935;-72
2021/03/30 01:52:57;;;;;;;;;;;;;;;14.61;41.95;102348.75;5057202;28;19924;-72
2021/03/30 01:55:23;;;;;;;;;;;;;;;14.53;42.52;102345.81;5056907;28;19925;-72
2021/03/30 01:57:51;;;;;;;;;;;;;;;14.61;42.51;102345.13;5037517;28;19928;-72
2021/03/30 02:00:39;;;;;;;;;;;;;;;14.52;42.86;102331.13;5076216;28;19924;-71
2021/03/30 02:03:06;;;;;;;;;;;;;;;14.56;43.31;102342.44;5076827;28;20399;-72
2021/03/30 02:05:38;;;;;;;;;;;;;;;14.55;43.19;102336.09;5043319;28;20394;-71
2021/03/30 02:08:06;;;;;;;;;;;;;;;14.65;42.99;102338.72;5076579;28;19925;-71
2021/03/30 02:10:51;;;;;;;;;;;;;;;14.68;43.07;102342.00;5058600;28;19925;-71
2021/03/30 02:13:29;;;;;;;;;;;;;;;14.45;43.31;102325.13;5059694;28;19924;-71
2021/03/30 02:15:57;;;;;;;;;;;;;;;14.41;43.34;102326.06;5077769;28;20380;-71
2021/03/30 02:18:24;;;;;;;;;;;;;;;14.36;43.38;102323.34;5045765;28;20388;-72
2021/03/30 02:20:53;;;;;;;;;;;;;;;14.55;43.14;102322.25;5059796;28;19930;-72
2021/03/30 02:23:22;;;;;;;;;;;;;;;14.54;42.78;102319.72;5077963;28;19935;-73
2021/03/30 02:25:50;;;;;;;;;;;;;;;14.68;42.19;102306.75;5059978;28;19999;-72
2021/03/30 02:28:18;;;;;;;;;;;;;;;14.69;42.07;102316.75;5060218;28;19924;-73
2021/03/30 02:30:51;;;;;;;;;;;;;;;14.58;42.59;102304.16;5059639;28;19931;-71
2021/03/30 02:33:19;;;;;;;;;;;;;;;14.38;42.93;102312.81;5058947;28;19932;-70
2021/03/30 02:35:47;;;;;;;;;;;;;;;14.39;42.98;102306.13;5041915;28;19924;-72
2021/03/30 02:38:13;;;;;;;;;;;;;;;14.47;42.97;102311.00;5041438;28;19931;-70
2021/03/30 02:40:40;;;;;;;;;;;;;;;14.35;43.32;102313.38;5058171;28;19934;-72
2021/03/30 02:43:08;;;;;;;;;;;;;;;14.49;43.09;102311.50;5058387;28;20390;-70
2021/03/30 02:45:34;;;;;;;;;;;;;;;14.36;43.19;102309.50;5075741;28;20280;-71
2021/03/30 02:48:06;;;;;;;;;;;;;;;14.27;43.56;102316.84;5058826;28;19925;-72
2021/03/30 02:50:33;;;;;;;;;;;;;;;14.27;43.52;102311.28;5058214;28;19932;-71
2021/03/30 02:53:02;;;;;;;;;;;;;;;14.26;43.59;102309.66;5075531;28;19928;-71
2021/03/30 02:55:28;;;;;;;;;;;;;;;14.12;43.86;102311.50;5075808;28;19947;-70
2021/03/30 02:57:55;;;;;;;;;;;;;;;14.10;44.05;102306.25;5057593;28;19932;-72
2021/03/30 03:00:22;;;;;;;;;;;;;;;14.09;44.06;102312.91;5040625;28;19925;-72
2021/03/30 03:02:49;;;;;;;;;;;;;;;14.08;44.11;102304.88;5041299;28;19947;-71
2021/03/30 03:05:16;;;;;;;;;;;;;;;14.14;44.17;102314.78;5058232;28;19925;-72
2021/03/30 03:07:43;;;;;;;;;;;;;;;14.14;44.27;102309.25;5057520;28;19925;-72
2021/03/30 03:10:10;;;;;;;;;;;;;;;14.06;44.22;102313.50;5056526;28;19932;-72
2021/03/30 03:12:38;;;;;;;;;;;;;;;14.13;44.07;102307.59;5075449;28;20371;-72
2021/03/30 03:15:06;;;;;;;;;;;;;;;14.14;44.00;102307.28;5071998;28;20376;-70
2021/03/30 03:17:33;;;;;;;;;;;;;;;14.03;44.18;102322.41;5057822;28;19948;-70
2021/03/30 03:20:00;;;;;;;;;;;;;;;14.17;44.04;102311.41;5075306;28;20413;-71
2021/03/30 03:22:26;;;;;;;;;;;;;;;14.13;43.90;102315.91;5074703;28;19968;-71
2021/03/30 03:24:53;;;;;;;;;;;;;;;14.05;44.08;102316.56;5075232;28;19924;-70
2021/03/30 03:27:19;;;;;;;;;;;;;;;14.03;44.35;102313.28;5074664;28;19997;-71
2021/03/30 03:29:47;;;;;;;;;;;;;;;14.00;44.24;102311.09;5075190;28;19924;-71
2021/03/30 03:32:14;;;;;;;;;;;;;;;13.96;44.18;102316.41;5074269;28;20299;-71
2021/03/30 03:34:59;;;;;;;;;;;;;;;13.93;43.96;102316.97;5040090;28;19920;-70
2021/03/30 03:37:25;;;;;;;;;;;;;;;13.85;44.50;102319.59;5054030;28;19925;-71
2021/03/30 03:40:10;;;;;;;;;;;;;;;13.86;44.14;102321.25;5054827;28;20245;-69
2021/03/30 03:42:37;;;;;;;;;;;;;;;13.80;44.08;102316.88;5036214;28;20375;-71
2021/03/30 03:45:04;;;;;;;;;;;;;;;13.93;43.71;102316.19;5051598;28;19925;-71
2021/03/30 03:47:31;;;;;;;;;;;;;;;14.06;43.27;102316.28;5003537;28;19947;-70
2021/03/30 03:49:58;;;;;;;;;;;;;;;13.86;43.52;102319.28;5054347;28;19948;-70
2021/03/30 03:52:25;;;;;;;;;;;;;;;13.83;43.80;102325.44;5042728;28;19924;-72
2021/03/30 03:54:57;;;;;;;;;;;;;;;13.74;43.82;102324.44;5058327;28;20295;-69
2021/03/30 03:57:27;;;;;;;;;;;;;;;13.78;43.72;102319.13;5056225;28;19928;-70
2021/03/30 03:59:53;;;;;;;;;;;;;;;13.83;43.56;102319.06;5039866;28;19948;-72
2021/03/30 04:02:21;;;;;;;;;;;;;;;13.67;44.05;102325.94;5056450;28;19932;-72
2021/03/30 04:04:53;;;;;;;;;;;;;;;13.71;43.88;102322.25;5073809;28;20280;-72
2021/03/30 04:11:37;;;;;;;;;;;;;;;13.78;43.49;102324.66;5074204;28;19927;-71
2021/03/30 04:14:04;;;;;;;;;;;;;;;13.85;42.75;102317.66;5072574;28;19924;-71
2021/03/30 04:16:31;;;;;;;;;;;;;;;14.02;42.19;102314.38;5055801;28;19991;-70
2021/03/30 04:18:57;;;;;;;;;;;;;;;13.88;42.41;102311.50;5056258;28;19932;-72
2021/03/30 04:21:31;;;;;;;;;;;;;;;13.82;42.77;102315.50;5054956;28;19936;-71
2021/03/30 04:24:00;;;;;;;;;;;;;;;13.92;42.50;102314.50;5073412;28;19931;-72
2021/03/30 04:26:27;;;;;;;;;;;;;;;13.88;42.60;102300.44;5040226;28;19924;-72
2021/03/30 04:28:54;;;;;;;;;;;;;;;13.75;43.25;102308.66;5056082;28;19931;-73
2021/03/30 04:31:21;;;;;;;;;;;;;;;13.73;43.05;102310.88;5073683;28;20418;-70
2021/03/30 04:33:48;;;;;;;;;;;;;;;13.92;42.64;102303.44;5040469;28;19931;-71
2021/03/30 04:36:14;;;;;;;;;;;;;;;13.86;42.72;102307.41;5070160;28;19925;-70
2021/03/30 04:38:41;;;;;;;;;;;;;;;13.62;43.60;102315.72;5073673;28;19925;-70
2021/03/30 04:41:08;;;;;;;;;;;;;;;13.65;43.76;102304.03;5073859;28;19932;-71
2021/03/30 04:43:37;;;;;;;;;;;;;;;13.56;43.91;102316.91;5073705;28;20368;-72
2021/03/30 04:46:05;;;;;;;;;;;;;;;13.43;44.47;102314.84;5073538;28;19924;-71
2021/03/30 04:48:32;;;;;;;;;;;;;;;13.31;44.63;102311.66;5022103;28;19924;-72
2021/03/30 04:50:58;;;;;;;;;;;;;;;13.42;44.41;102314.00;5073426;28;19931;-71
2021/03/30 04:53:26;;;;;;;;;;;;;;;13.36;44.55;102323.50;5054944;28;19932;-70
2021/03/30 04:55:53;;;;;;;;;;;;;;;13.30;44.84;102313.59;5055201;28;19931;-70
2021/03/30 04:58:20;;;;;;;;;;;;;;;13.20;44.97;102319.22;5071632;28;19935;-71
2021/03/30 05:00:48;;;;;;;;;;;;;;;13.13;45.09;102313.22;5073173;28;19936;-72
2021/03/30 05:03:14;;;;;;;;;;;;;;;13.18;45.36;102315.13;5073691;28;19925;-71
2021/03/30 05:05:41;;;;;;;;;;;;;;;13.18;45.32;102320.66;5073440;28;19924;-71
2021/03/30 05:08:11;;;;;;;;;;;;;;;13.11;45.47;102318.22;5071308;28;19928;-72
2021/03/30 05:10:40;;;;;;;;;;;;;;;13.25;45.15;102313.63;5055641;28;20299;-71
2021/03/30 05:13:07;;;;;;;;;;;;;;;13.03;45.46;102310.56;5038887;28;19932;-73
2021/03/30 05:15:34;;;;;;;;;;;;;;;13.09;45.64;102311.34;5071407;28;19924;-71
2021/03/30 05:18:00;;;;;;;;;;;;;;;13.03;45.56;102309.72;5073091;28;19935;-71
2021/03/30 05:20:27;;;;;;;;;;;;;;;13.07;45.79;102314.41;5055127;28;19932;-72
2021/03/30 05:27:18;;;;;;;;;;;;;;;13.01;45.72;102320.22;5072297;28;19921;-71
2021/03/30 05:29:45;;;;;;;;;;;;;;;12.97;45.90;102333.78;5072931;28;19931;-72
2021/03/30 05:32:16;;;;;;;;;;;;;;;12.90;46.14;102333.31;5055386;28;19932;-71
2021/03/30 05:34:50;;;;;;;;;;;;;;;12.83;46.44;102346.63;5059175;28;19924;-72
2021/03/30 05:37:17;;;;;;;;;;;;;;;12.65;46.99;102344.59;5041835;28;19931;-72
2021/03/30 05:39:47;;;;;;;;;;;;;;;12.54;47.23;102350.44;5058727;28;19924;-71
2021/03/30 05:42:14;;;;;;;;;;;;;;;12.39;47.48;102355.00;5058744;28;19924;-72
2021/03/30 05:44:42;;;;;;;;;;;;;;;12.58;47.32;102352.38;5059762;28;19935;-72
2021/03/30 05:47:15;;;;;;;;;;;;;;;12.56;47.40;102337.19;5059220;28;19925;-72
2021/03/30 05:49:43;;;;;;;;;;;;;;;12.54;47.22;102351.28;5060060;28;19925;-71
2021/03/30 05:52:16;;;;;;;;;;;;;;;12.53;47.17;102351.56;5056316;28;20018;-73
2021/03/30 05:54:44;;;;;;;;;;;;;;;12.72;46.73;102356.16;5042765;28;19924;-71
2021/03/30 05:57:11;;;;;;;;;;;;;;;12.89;46.26;102351.03;5042941;28;19929;-68
2021/03/30 05:59:38;;;;;;;;;;;;;;;12.97;46.12;102344.06;5042221;28;19924;-70
2021/03/30 06:02:05;;;;;;;;;;;;;;;12.76;46.53;102346.13;5076648;28;19925;-71
2021/03/30 06:04:32;;;;;;;;;;;;;;;12.69;46.56;102345.66;5058536;28;19924;-72
2021/03/30 06:07:00;;;;;;;;;;;;;;;12.78;46.36;102343.91;5076702;28;19928;-72
2021/03/30 06:09:29;;;;;;;;;;;;;;;12.85;46.05;102351.91;5041642;28;19924;-71
2021/03/30 06:12:04;;;;;;;;;;;;;;;12.88;45.94;102357.69;5073723;28;19924;-71
2021/03/30 06:14:40;;;;;;;;;;;;;;;12.98;45.86;102357.59;5058211;28;19928;-70
2021/03/30 06:17:15;;;;;;;;;;;;;;;13.09;45.75;102361.13;5043089;28;20098;-71
2021/03/30 06:19:45;;;;;;;;;;;;;;;12.94;46.32;102355.69;5075845;28;20295;-67
2021/03/30 06:22:12;;;;;;;;;;;;;;;12.67;46.90;102356.19;5075693;28;20383;-74
2021/03/30 06:24:43;;;;;;;;;;;;;;;12.71;46.78;102359.19;5075650;28;19924;-75
2021/03/30 06:27:20;;;;;;;;;;;;;;;12.87;46.29;102363.47;5075618;28;19924;-73
2021/03/30 06:29:50;;;;;;;;;;;;;;;12.94;45.95;102362.03;5076125;28;19924;-68
2021/03/30 06:32:20;;;;;;;;;;;;;;;12.90;46.34;102368.44;5057532;28;19924;-69
2021/03/30 06:34:49;;;;;;;;;;;;;;;13.02;46.34;102358.69;5075709;28;19931;-70
2021/03/30 06:37:25;;;;;;;;;;;;;;;13.07;45.94;102361.41;5057072;28;19931;-70
2021/03/30 06:39:52;;;;;;;;;;;;;;;13.01;46.04;102365.31;5075108;28;19924;-72
2021/03/30 06:42:29;;;;;;;;;;;;;;;12.95;46.41;102360.13;5042434;28;19924;-76
2021/03/30 06:45:00;;;;;;;;;;;;;;;13.26;46.39;102355.97;5058271;28;19929;-74
2021/03/30 06:47:27;;;;;;;;;;;;;;;13.30;45.88;102368.13;5075482;28;19924;-76
2021/03/30 06:50:01;;;;;;;;;;;;;;;13.40;45.51;102363.31;5044053;28;19940;-70
2021/03/30 06:52:35;;;;;;;;;;;;;;;13.53;46.22;102357.06;5058824;28;19924;-79
2021/03/30 06:55:06;;;;;;;;;;;;;;;13.56;45.68;102361.22;5076416;28;19924;-70
2021/03/30 06:57:39;;;;;;;;;;;;;;;13.32;46.08;102358.41;5081824;28;19928;-78
2021/03/30 07:00:18;;;;;;;;;;;;;;;13.60;46.17;102351.19;5082099;28;19924;-70
2021/03/30 07:02:53;;;;;;;;;;;;;;;13.66;45.74;102352.78;5078695;28;19931;-72
2021/03/30 07:05:24;;;;;;;;;;;;;;;13.68;45.69;102360.78;5061006;28;19931;-79
2021/03/30 07:07:55;;;;;;;;;;;;;;;13.97;45.36;102362.38;5063126;28;19924;-72
2021/03/30 07:10:32;;;;;;;;;;;;;;;13.87;45.14;102364.44;5080019;28;19928;-79
2021/03/30 07:12:59;;;;;;;;;;;;;;;14.00;44.76;102360.97;5061926;28;19924;-70
2021/03/30 07:15:26;;;;;;;;;;;;;;;14.15;44.31;102358.81;5078110;28;19924;-74
2021/03/30 07:17:57;;;;;;;;;;;;;;;14.11;44.33;102359.69;5062190;28;19925;-67
2021/03/30 07:20:23;;;;;;;;;;;;;;;14.01;44.50;102359.84;5078904;28;19924;-71
2021/03/30 07:22:53;;;;;;;;;;;;;;;14.15;44.46;102363.53;5059369;28;19925;-70
2021/03/30 07:25:25;;;;;;;;;;;;;;;14.15;43.86;102363.53;5058549;28;19929;-77
2021/03/30 07:28:00;;;;;;;;;;;;;;;14.34;43.84;102364.41;5058089;28;20367;-77
2021/03/30 07:30:45;;;;;;;;;;;;;;;14.37;43.46;102372.97;5074880;28;19927;-82
2021/03/30 07:33:20;;;;;;;;;;;;;;;14.25;43.34;102375.31;5058193;28;19931;-73
2021/03/30 07:35:49;;;;;;;;;;;;;;;14.42;43.59;102366.50;5073818;28;19932;-70
2021/03/30 07:38:25;;;;;;;;;;;;;;;14.59;42.75;102366.81;5057529;28;19924;-78
2021/03/30 07:40:52;;;;;;;;;;;;;;;14.57;42.91;102369.88;5057212;28;19979;-69
2021/03/30 07:43:23;;;;;;;;;;;;;;;14.84;42.36;102371.97;5072676;28;20028;-68
2021/03/30 07:45:51;;;;;;;;;;;;;;;14.77;42.26;102370.72;5039304;28;19935;-67
2021/03/30 07:48:18;;;;;;;;;;;;;;;14.93;41.97;102372.94;5039950;28;19932;-67
2021/03/30 07:50:50;;;;;;;;;;;;;;;14.97;41.76;102370.38;5074145;28;19932;-68
2021/03/30 07:53:35;;;;;;;;;;;;;;;15.11;41.38;102372.09;5038499;28;20395;-66
2021/03/30 07:56:02;;;;;;;;;;;;;;;15.04;41.59;102371.66;5073039;28;19924;-65
2021/03/30 07:58:35;;;;;;;;;;;;;;;14.83;42.13;102373.09;5070926;28;19932;-68
2021/03/30 08:01:04;;;;;;;;;;;;;;;15.02;41.52;102371.13;5061190;28;19925;-70
2021/03/30 08:03:33;;;;;;;;;;;;;;;15.21;41.66;102374.69;5055941;28;19928;-68
2021/03/30 08:06:27;;;;;;;;;;;;;;;15.30;40.93;102367.31;5072863;28;19924;-70
2021/03/30 08:09:07;;;;;;;;;;;;;;;15.32;40.99;102373.38;5073061;28;19924;-69
2021/03/30 08:11:40;;;;;;;;;;;;;;;15.36;40.77;102368.03;5073130;28;19924;-70
2021/03/30 08:14:08;;;;;;;;;;;;;;;15.45;40.93;102364.25;5070813;28;19936;-68
2021/03/30 08:16:35;;;;;;;;;;;;;;;15.58;40.55;102366.25;5055223;28;19932;-68
2021/03/30 08:19:06;;;;;;;;;;;;;;;15.60;40.33;102375.06;5055661;28;19935;-70
2021/03/30 08:21:53;;;;;;;;;;;;;;;15.76;40.22;102368.09;5056175;28;19924;-72
2021/03/30 08:24:20;;;;;;;;;;;;;;;15.78;40.13;102371.41;5073046;28;19925;-67
2021/03/30 08:26:48;;;;;;;;;;;;;;;15.82;40.22;102362.44;5073415;28;19931;-67
2021/03/30 08:29:17;;;;;;;;;;;;;;;15.68;40.12;102360.50;5073158;28;20287;-69
2021/03/30 08:31:48;;;;;;;;;;;;;;;15.95;39.90;102369.97;5055451;28;19925;-69
2021/03/30 08:34:16;;;;;;;;;;;;;;;15.93;39.87;102367.50;5039113;28;19924;-67
2021/03/30 08:36:55;;;;;;;;;;;;;;;16.19;39.36;102374.16;5038630;28;20296;-68
2021/03/30 08:39:25;;;;;;;;;;;;;;;16.03;39.45;102375.63;5073345;28;19925;-68
2021/03/30 08:41:53;;;;;;;;;;;;;;;16.26;39.42;102369.00;5073241;28;19935;-69
2021/03/30 08:44:36;;;;;;;;;;;;;;;16.39;39.17;102368.16;5072956;28;19929;-67
2021/03/30 08:47:26;;;;;;;;;;;;;;;16.54;38.70;102367.84;5073496;28;20356;-69
2021/03/30 08:50:12;;;;;;;;;;;;;;;16.69;38.44;102367.47;5039193;28;20403;-69
2021/03/30 08:52:39;;;;;;;;;;;;;;;16.60;38.54;102366.56;5073686;28;19925;-68
2021/03/30 08:55:08;;;;;;;;;;;;;;;16.78;38.03;102367.56;5073458;28;19931;-68
2021/03/30 08:57:37;;;;;;;;;;;;;;;16.79;38.08;102361.66;5072366;28;19924;-69
2021/03/30 09:00:05;;;;;;;;;;;;;;;16.67;38.34;102364.19;5073292;28;19948;-70
2021/03/30 09:02:59;;;;;;;;;;;;;;;16.39;38.89;102362.59;5073380;28;20237;-69
2021/03/30 09:05:26;;;;;;;;;;;;;;;16.55;38.82;102361.13;5073061;28;19925;-68
2021/03/30 09:07:53;;;;;;;;;;;;;;;16.82;38.30;102363.00;5055073;28;19925;-69
2021/03/30 09:10:19;;;;;;;;;;;;;;;16.74;38.55;102367.34;5055295;28;19925;-67
2021/03/30 09:12:46;;;;;;;;;;;;;;;16.94;38.18;102363.25;5072667;28;19947;-70
2021/03/30 09:15:14;;;;;;;;;;;;;;;17.17;37.95;102362.13;5055398;28;19924;-72
2021/03/30 09:17:53;;;;;;;;;;;;;;;17.14;37.62;102368.31;5055816;28;20344;-68
2021/03/30 09:20:21;;;;;;;;;;;;;;;17.06;37.61;102362.69;5055006;28;19925;-71
2021/03/30 09:22:52;;;;;;;;;;;;;;;17.05;37.42;102356.28;5073101;28;20034;-69
2021/03/30 09:27:45;;;;;;;;;;;;;;;17.33;37.67;102354.19;5055493;28;19925;-70
2021/03/30 09:30:13;;;;;;;;;;;;;;;17.63;37.28;102362.56;5072223;28;19928;-70
2021/03/30 09:32:40;;;;;;;;;;;;;;;17.47;37.19;102360.53;5073222;28;19924;-69
2021/03/30 09:35:13;;;;;;;;;;;;;;;17.56;37.18;102353.00;5073472;28;19991;-78
2021/03/30 09:37:49;;;;;;;;;;;;;;;17.31;37.14;102354.47;5073043;28;19925;-72
2021/03/30 09:40:17;;;;;;;;;;;;;;;17.64;36.92;102355.03;5055204;28;19931;-68
2021/03/30 09:42:49;;;;;;;;;;;;;;;17.70;36.36;102345.38;5071474;28;19924;-67
2021/03/30 09:45:22;;;;;;;;;;;;;;;17.72;36.69;102343.09;5072382;28;19925;-69
2021/03/30 09:47:48;;;;;;;;;;;;;;;18.15;36.07;102346.00;5071700;28;19931;-69
2021/03/30 09:50:17;;;;;;;;;;;;;;;18.10;36.11;102341.38;5054681;28;19931;-69
2021/03/30 09:52:43;;;;;;;;;;;;;;;18.32;35.70;102335.72;5072945;28;19935;-69
2021/03/30 09:55:10;;;;;;;;;;;;;;;18.36;35.17;102338.66;5071839;28;19925;-68
2021/03/30 09:57:37;;;;;;;;;;;;;;;18.27;35.43;102335.84;5055572;28;20287;-69
2021/03/30 10:00:04;;;;;;;;;;;;;;;18.20;35.68;102334.69;5072637;28;19931;-70
2021/03/30 10:02:34;;;;;;;;;;;;;;;18.45;35.43;102329.16;5072040;28;19947;-69
2021/03/30 10:05:05;;;;;;;;;;;;;;;18.63;35.37;102330.84;5072225;28;20087;-70
2021/03/30 10:07:32;;;;;;;;;;;;;;;18.74;34.85;102323.75;5072393;28;19928;-68
2021/03/30 10:09:59;;;;;;;;;;;;;;;18.73;34.93;102322.13;5054300;28;19931;-78
2021/03/30 10:12:32;;;;;;;;;;;;;;;18.37;35.31;102310.44;5054183;28;19924;-75
2021/03/30 10:15:00;;;;;;;;;;;;;;;18.49;34.97;102319.00;5055337;28;19931;-70
2021/03/30 10:17:30;;;;;;;;;;;;;;;18.49;35.24;102319.00;5073475;28;19936;-71
2021/03/30 10:19:58;;;;;;;;;;;;;;;18.67;35.45;102315.03;5072848;28;19947;-69
2021/03/30 10:22:47;;;;;;;;;;;;;;;18.71;35.15;102318.00;5075489;28;19921;-72
2021/03/30 10:25:17;;;;;;;;;;;;;;;18.68;35.18;102318.66;5074818;28;19931;-69
2021/03/30 10:27:47;;;;;;;;;;;;;;;18.81;34.83;102314.91;5075723;28;19931;-70
2021/03/30 10:30:14;;;;;;;;;;;;;;;18.58;34.83;102316.22;5075208;28;19944;-71
2021/03/30 10:32:46;;;;;;;;;;;;;;;18.73;34.86;102312.91;5058448;28;19932;-69
2021/03/30 10:35:12;;;;;;;;;;;;;;;18.82;34.85;102317.34;5074900;28;19925;-73
2021/03/30 10:37:39;;;;;;;;;;;;;;;18.81;35.03;102306.53;5073415;28;19924;-74
2021/03/30 10:40:06;;;;;;;;;;;;;;;18.78;35.16;102296.81;5075383;28;19946;-71
2021/03/30 10:42:37;;;;;;;;;;;;;;;19.17;34.56;102300.50;5075392;28;19924;-68
2021/03/30 10:45:05;;;;;;;;;;;;;;;19.07;34.86;102301.72;5074811;28;19931;-69
2021/03/30 10:47:38;;;;;;;;;;;;;;;19.11;34.49;102296.28;5075390;28;19924;-68
2021/03/30 10:50:16;;;;;;;;;;;;;;;18.79;34.92;102303.22;5059060;28;19924;-69
2021/03/30 10:52:52;;;;;;;;;;;;;;;18.63;35.27;102302.09;5072963;28;19928;-66
2021/03/30 10:55:20;;;;;;;;;;;;;;;18.81;34.95;102290.56;5056434;28;19931;-66
2021/03/30 10:58:08;;;;;;;;;;;;;;;19.13;34.13;102289.19;5059436;28;19932;-70
2021/03/30 11:00:38;;;;;;;;;;;;;;;19.15;34.36;102292.47;5057566;28;19925;-67
2021/03/30 11:03:22;;;;;;;;;;;;;;;19.21;34.15;102291.16;5074729;28;19928;-65
2021/03/30 11:06:09;;;;;;;;;;;;;;;19.30;33.74;102282.75;5074485;28;19920;-70
2021/03/30 11:08:39;;;;;;;;;;;;;;;19.47;33.60;102277.94;5041091;28;19987;-66
2021/03/30 11:11:06;;;;;;;;;;;;;;;19.42;33.97;102280.09;5074510;28;19931;-69
2021/03/30 11:13:33;;;;;;;;;;;;;;;19.54;33.59;102272.63;5074291;28;19925;-69
2021/03/30 11:16:00;;;;;;;;;;;;;;;19.67;33.52;102265.97;5073842;28;19925;-69
2021/03/30 11:18:29;;;;;;;;;;;;;;;19.72;33.35;102267.75;5056790;28;19931;-67
2021/03/30 11:20:58;;;;;;;;;;;;;;;19.74;33.27;102260.69;5057147;28;19925;-70
2021/03/30 11:23:24;;;;;;;;;;;;;;;19.75;32.86;102265.09;5039124;28;19928;-79
2021/03/30 11:25:52;;;;;;;;;;;;;;;19.87;33.08;102254.03;5056053;28;20402;-70
2021/03/30 11:28:19;;;;;;;;;;;;;;;19.71;33.24;102252.16;5073745;28;19958;-72
2021/03/30 11:30:51;;;;;;;;;;;;;;;19.90;33.21;102253.34;5073818;28;19924;-76
2021/03/30 11:38:12;;;;;;;;;;;;;;;20.03;32.69;102243.06;5074225;28;20356;-75
2021/03/30 11:40:38;;;;;;;;;;;;;;;20.17;32.69;102243.66;5055258;28;19932;-77
2021/03/30 11:47:28;;;;;;;;;;;;;;;20.55;31.73;102224.69;5071466;28;19921;-71
2021/03/30 11:49:55;;;;;;;;;;;;;;;20.35;31.76;102228.31;5073932;28;20303;-71
2021/03/30 11:52:26;;;;;;;;;;;;;;;20.47;32.17;102224.78;5073506;28;19936;-73
2021/03/30 11:54:58;;;;;;;;;;;;;;;20.74;31.51;102216.59;5043685;28;19924;-68
2021/03/30 11:57:49;;;;;;;;;;;;;;;20.81;31.29;102211.25;5063796;28;19943;-77
2021/03/30 12:00:16;;;;;;;;;;;;;;;20.71;31.00;102216.47;5073499;28;19947;-75
2021/03/30 12:02:57;;;;;;;;;;;;;;;20.73;31.64;102211.34;5057137;28;20295;-73
2021/03/30 12:05:26;;;;;;;;;;;;;;;20.81;31.24;102207.63;5073251;28;19924;-78
2021/03/30 12:08:13;;;;;;;;;;;;;;;21.07;30.82;102196.97;5052533;28;19943;-75
2021/03/30 12:10:57;;;;;;;;;;;;;;;21.18;30.45;102195.34;5073511;28;19930;-80
2021/03/30 12:13:31;;;;;;;;;;;;;;;21.24;30.36;102197.56;5074063;28;19932;-75
2021/03/30 12:16:03;;;;;;;;;;;;;;;21.35;29.91;102189.50;5040749;28;19925;-75
2021/03/30 12:18:33;;;;;;;;;;;;;;;21.30;29.99;102195.34;5071361;28;19932;-70
2021/03/30 12:21:01;;;;;;;;;;;;;;;21.37;29.96;102189.16;5072820;28;20276;-68
2021/03/30 12:23:48;;;;;;;;;;;;;;;21.47;29.72;102186.69;4991699;28;19932;-69
2021/03/30 12:26:16;;;;;;;;;;;;;;;21.73;29.17;102183.50;5058119;28;19946;-67
2021/03/30 12:28:44;;;;;;;;;;;;;;;21.59;29.21;102174.63;5073356;28;19924;-75
2021/03/30 12:31:24;;;;;;;;;;;;;;;21.61;28.88;102178.72;5057179;28;20483;-67
2021/03/30 12:33:51;;;;;;;;;;;;;;;21.94;28.65;102176.59;5073144;28;20380;-73
2021/03/30 12:36:21;;;;;;;;;;;;;;;22.12;28.22;102165.91;5023211;28;19925;-69
2021/03/30 12:38:51;;;;;;;;;;;;;;;21.85;27.78;102158.25;5038534;28;19924;-70
2021/03/30 12:41:17;;;;;;;;;;;;;;;22.11;27.74;102162.25;5054061;28;19924;-78
2021/03/30 12:43:44;;;;;;;;;;;;;;;22.12;27.72;102149.06;5072809;28;19932;-75
2021/03/30 12:46:14;;;;;;;;;;;;;;;22.12;27.45;102149.06;5054584;28;19932;-73
2021/03/30 12:48:41;;;;;;;;;;;;;;;22.31;27.01;102138.81;5037673;28;19931;-73
2021/03/30 12:51:08;;;;;;;;;;;;;;;22.38;26.85;102140.97;5054888;28;20356;-75
2021/03/30 12:53:35;;;;;;;;;;;;;;;22.23;26.79;102136.13;5072573;28;19925;-74
2021/03/30 12:56:02;;;;;;;;;;;;;;;22.44;26.93;102131.09;5054817;28;19924;-68
2021/03/30 12:58:29;;;;;;;;;;;;;;;22.54;26.55;102129.78;5054768;28;19925;-74
2021/03/30 13:01:16;;;;;;;;;;;;;;;22.80;26.63;102132.91;5071837;28;19921;-74
2021/03/30 13:03:48;;;;;;;;;;;;;;;22.86;26.90;102131.44;5054545;28;19924;-69
2021/03/30 13:06:15;;;;;;;;;;;;;;;22.89;26.84;102127.94;5035734;28;19924;-70
2021/03/30 13:08:43;;;;;;;;;;;;;;;22.74;27.06;102120.28;5053401;28;20024;-69
2021/03/30 13:11:10;;;;;;;;;;;;;;;22.72;26.99;102119.84;5054418;28;19924;-69
2021/03/30 13:13:37;;;;;;;;;;;;;;;22.70;27.20;102114.59;5072197;28;20388;-70
2021/03/30 13:16:07;;;;;;;;;;;;;;;22.78;27.10;102112.78;5054245;28;19924;-73
2021/03/30 13:18:33;;;;;;;;;;;;;;;22.74;27.38;102115.50;5038594;28;19935;-69